Time;durP1;ratioP1;P1;durP2;ratioP2;P2;SDS_P1;SDS_P2;PMS_P1;PMS_P2;Temp;Humidity;BMP_temperature;BMP_pressure;BME280_temperature;BME280_humidity;BME280_pressure;Samples;Min_cycle;Max_cycle;Signal;HPM_P1;HPM_P2
2022/05/05 00:00:45;;;;;;;12.68;9.45;;;;;;;12.60;77.97;100427.41;5110550;28;20023;-28
2022/05/05 00:03:10;;;;;;;14.43;9.85;;;;;;;12.69;76.73;100409.22;5110011;28;20089;-29
2022/05/05 00:05:36;;;;;;;12.48;9.10;;;;;;;12.70;76.46;100424.22;5110176;28;20547;-28
2022/05/05 00:08:01;;;;;;;12.75;9.55;;;;;;;13.09;75.31;100434.66;5110450;28;20031;-28
2022/05/05 00:15:54;;;;;;;11.52;9.48;;;;;;;12.66;76.59;100436.41;5110424;28;20188;-28
2022/05/05 00:18:20;;;;;;;13.35;10.23;;;;;;;12.78;76.45;100429.25;5110230;28;20734;-30
2022/05/05 00:20:46;;;;;;;12.43;9.25;;;;;;;12.25;78.35;100419.97;5091575;28;20547;-28
2022/05/05 00:23:11;;;;;;;13.32;9.80;;;;;;;12.43;77.49;100415.69;5109736;28;20076;-28
2022/05/05 00:25:37;;;;;;;11.55;9.35;;;;;;;12.29;77.08;100428.38;5109348;28;20023;-28
2022/05/05 00:28:02;;;;;;;11.43;8.80;;;;;;;12.38;76.23;100440.44;5109689;28;20083;-27
2022/05/05 00:30:29;;;;;;;12.18;9.10;;;;;;;12.53;76.12;100440.06;5109688;28;20027;-31
2022/05/05 00:32:54;;;;;;;15.45;9.98;;;;;;;12.37;77.21;100438.78;5109749;28;20043;-28
2022/05/05 00:35:19;;;;;;;11.25;9.13;;;;;;;11.92;78.96;100417.59;5109547;28;20035;-30
2022/05/05 00:37:45;;;;;;;13.35;9.82;;;;;;;11.82;80.59;100435.97;5090836;28;20055;-29
2022/05/05 00:40:11;;;;;;;13.98;10.15;;;;;;;11.61;82.03;100424.59;5109610;28;20047;-28
2022/05/05 00:42:37;;;;;;;14.70;10.10;;;;;;;11.61;82.32;100435.28;5109661;28;20034;-28
2022/05/05 00:45:03;;;;;;;13.30;9.68;;;;;;;11.48;83.45;100438.03;5109352;28;20107;-28
2022/05/05 00:47:28;;;;;;;12.35;9.85;;;;;;;11.44;83.51;100421.66;5109417;28;20043;-30
2022/05/05 00:49:54;;;;;;;12.45;9.90;;;;;;;11.52;82.67;100430.41;5109519;28;20027;-31
2022/05/05 00:52:19;;;;;;;15.13;9.35;;;;;;;11.53;82.88;100438.22;5109201;28;20063;-28
2022/05/05 00:54:45;;;;;;;14.07;10.55;;;;;;;11.30;83.28;100412.09;5109149;28;20031;-31
2022/05/05 00:57:13;;;;;;;12.10;9.32;;;;;;;11.65;81.93;100436.50;5090706;28;20035;-29
2022/05/05 00:59:40;;;;;;;12.68;9.55;;;;;;;11.78;80.42;100418.72;5109195;28;20032;-28
2022/05/05 01:02:05;;;;;;;11.40;9.43;;;;;;;11.45;81.11;100406.44;5090725;28;20120;-28
2022/05/05 01:04:35;;;;;;;12.48;9.13;;;;;;;11.74;80.05;100436.22;5108961;28;20027;-34
2022/05/05 01:07:01;;;;;;;11.93;9.07;;;;;;;11.57;80.09;100443.97;5108708;28;20038;-28
2022/05/05 01:09:27;;;;;;;14.35;8.80;;;;;;;11.68;78.45;100434.44;5109462;28;20024;-28
2022/05/05 01:11:52;;;;;;;13.73;9.18;;;;;;;11.54;77.92;100423.81;5109107;28;20024;-28
2022/05/05 01:14:18;;;;;;;11.93;8.90;;;;;;;11.41;79.02;100423.94;5108813;28;20020;-28
2022/05/05 01:16:44;;;;;;;11.38;8.68;;;;;;;11.22;80.25;100447.88;5108816;28;20424;-27
2022/05/05 01:19:09;;;;;;;12.63;9.27;;;;;;;11.36;79.81;100450.44;5108358;28;20487;-28
2022/05/05 01:21:35;;;;;;;11.13;7.88;;;;;;;11.42;78.78;100450.44;5090098;28;20103;-29
2022/05/05 01:24:00;;;;;;;12.48;9.02;;;;;;;11.52;78.87;100446.44;5090264;28;20027;-29
2022/05/05 01:29:11;;;;;;;11.13;8.77;;;;;;;11.19;80.23;100445.59;5108622;28;20109;-29
2022/05/05 01:31:38;;;;;;;13.93;9.25;;;;;;;11.16;80.97;100438.03;5108657;28;20038;-32
2022/05/05 01:34:04;;;;;;;12.93;9.27;;;;;;;11.05;82.04;100441.38;5108230;28;20104;-28
2022/05/05 01:36:30;;;;;;;13.65;9.15;;;;;;;11.16;80.11;100429.22;5107707;28;20035;-28
2022/05/05 01:38:55;;;;;;;10.68;8.82;;;;;;;11.27;78.99;100450.69;5108194;28;20071;-29
2022/05/05 01:41:21;;;;;;;12.02;9.95;;;;;;;11.35;79.16;100459.50;5108384;28;20032;-31
2022/05/05 01:43:47;;;;;;;16.05;9.90;;;;;;;11.41;79.37;100461.31;5089895;28;20042;-28
2022/05/05 01:46:16;;;;;;;17.13;9.75;;;;;;;11.27;81.10;100456.03;5089944;28;20031;-28
2022/05/05 01:48:41;;;;;;;11.75;9.15;;;;;;;11.07;79.70;100449.97;5108108;28;20563;-29
2022/05/05 01:51:07;;;;;;;12.73;8.82;;;;;;;11.09;79.91;100442.56;5107841;28;20106;-32
2022/05/05 01:53:36;;;;;;;13.75;9.93;;;;;;;11.32;78.88;100438.56;5108267;28;20039;-30
2022/05/05 01:56:12;;;;;;;13.07;10.30;;;;;;;11.34;78.32;100449.84;5089509;28;20039;-31
2022/05/05 01:58:40;;;;;;;13.18;9.32;;;;;;;10.92;81.94;100441.44;5108384;28;20027;-29
2022/05/05 02:01:09;;;;;;;;;;;;;;;10.85;83.26;100444.94;5107996;28;20027;-32
2022/05/05 02:03:34;;;;;;;14.05;9.57;;;;;;;10.88;83.56;100445.56;5107756;28;20027;-28
2022/05/05 02:06:00;;;;;;;15.13;10.48;;;;;;;10.96;83.16;100442.66;5108023;28;20514;-29
2022/05/05 02:08:25;;;;;;;13.75;10.35;;;;;;;11.23;81.29;100438.81;5089714;28;20128;-28
2022/05/05 02:10:51;;;;;;;14.73;9.85;;;;;;;10.83;83.39;100443.53;5107991;28;20456;-27
2022/05/05 02:13:16;;;;;;;14.20;9.25;;;;;;;10.81;83.93;100457.06;5107735;28;20412;-28
2022/05/05 02:15:41;;;;;;;14.20;10.60;;;;;;;11.01;83.26;100457.00;5107887;28;20036;-32
2022/05/05 02:18:12;;;;;;;12.80;9.63;;;;;;;11.42;81.13;100462.94;5107724;28;20088;-33
2022/05/05 02:20:38;;;;;;;14.52;10.55;;;;;;;11.16;81.92;100461.25;5107899;28;20031;-28
2022/05/05 02:23:05;;;;;;;13.35;10.50;;;;;;;10.70;84.32;100444.38;5089088;28;20051;-30
2022/05/05 02:25:31;;;;;;;12.82;9.70;;;;;;;10.97;83.36;100460.28;5089317;28;20035;-28
2022/05/05 02:27:56;;;;;;;12.70;9.93;;;;;;;10.85;83.02;100468.97;5107489;28;20376;-28
2022/05/05 02:30:23;;;;;;;12.45;9.60;;;;;;;10.56;83.98;100437.44;5089243;28;20035;-30
2022/05/05 02:32:49;;;;;;;15.50;10.02;;;;;;;10.92;82.87;100468.13;5107879;28;20038;-28
2022/05/05 02:35:16;;;;;;;13.18;9.65;;;;;;;11.00;81.69;100478.56;5088935;28;20130;-27
2022/05/05 02:40:25;;;;;;;14.93;10.38;;;;;;;10.87;81.74;100447.41;5107847;28;20120;-29
2022/05/05 02:42:51;;;;;;;13.55;9.80;;;;;;;10.72;83.26;100463.66;5088880;28;20031;-28
2022/05/05 02:45:17;;;;;;;14.23;10.52;;;;;;;11.02;81.88;100450.63;5107297;28;20020;-28
2022/05/05 02:47:42;;;;;;;14.07;10.68;;;;;;;11.23;80.60;100470.84;5089026;28;20039;-28
2022/05/05 02:50:08;;;;;;;12.85;10.45;;;;;;;10.76;82.87;100453.41;5107549;28;20783;-28
2022/05/05 02:52:34;;;;;;;12.70;10.40;;;;;;;10.68;82.97;100454.44;5107596;28;20035;-30
2022/05/05 02:55:01;;;;;;;15.25;11.23;;;;;;;10.76;83.41;100469.41;5107193;28;20020;-29
2022/05/05 02:57:27;;;;;;;14.93;10.47;;;;;;;10.84;82.59;100477.16;5107344;28;20020;-28
2022/05/05 02:59:54;;;;;;;13.18;9.85;;;;;;;11.03;82.13;100480.78;5107802;28;20028;-28
2022/05/05 03:02:20;;;;;;;14.93;10.55;;;;;;;11.03;81.51;100456.78;5107205;28;20418;-32
2022/05/05 03:04:46;;;;;;;15.38;10.82;;;;;;;11.29;80.13;100463.03;5107885;28;20035;-28
2022/05/05 03:07:11;;;;;;;16.58;11.30;;;;;;;11.23;80.38;100481.53;5088927;28;20418;-28
2022/05/05 03:09:39;;;;;;;20.67;11.35;;;;;;;11.11;80.21;100472.53;5107387;28;20032;-29
2022/05/05 03:12:05;;;;;;;13.10;9.98;;;;;;;11.17;79.63;100478.88;5107152;28;20510;-33
2022/05/05 03:14:31;;;;;;;13.70;10.52;;;;;;;11.19;79.52;100484.84;5088905;28;20029;-32
2022/05/05 03:16:56;;;;;;;13.93;10.27;;;;;;;11.18;79.67;100484.03;5106838;28;20024;-28
2022/05/05 03:19:21;;;;;;;16.20;10.82;;;;;;;11.06;79.26;100475.03;5107506;28;20027;-28
2022/05/05 03:21:47;;;;;;;16.67;12.02;;;;;;;10.85;80.91;100484.97;5107610;28;20042;-28
2022/05/05 03:24:12;;;;;;;23.83;15.75;;;;;;;11.11;80.00;100504.56;5107441;28;20027;-29
2022/05/05 03:26:38;;;;;;;26.17;16.48;;;;;;;10.94;79.74;100492.75;5107472;28;20036;-31
2022/05/05 03:29:04;;;;;;;31.35;18.75;;;;;;;10.95;80.62;100494.38;5088707;28;20036;-27
2022/05/05 03:31:31;;;;;;;25.88;17.17;;;;;;;10.97;79.97;100486.97;5107398;28;20038;-31
2022/05/05 03:33:56;;;;;;;17.70;13.20;;;;;;;11.30;77.95;100488.69;5107034;28;20035;-28
2022/05/05 03:36:23;;;;;;;18.77;12.98;;;;;;;11.12;78.82;100506.22;5106498;28;20062;-29
2022/05/05 03:38:49;;;;;;;17.65;11.73;;;;;;;11.41;76.94;100520.06;5088899;28;20097;-28
2022/05/05 03:41:14;;;;;;;15.68;11.07;;;;;;;11.19;77.12;100523.03;5106901;28;20027;-32
2022/05/05 03:43:40;;;;;;;12.77;10.68;;;;;;;11.02;78.65;100513.88;5087387;28;20096;-29
2022/05/05 03:46:06;;;;;;;15.40;10.95;;;;;;;10.66;80.39;100517.84;5088985;28;20081;-28
2022/05/05 03:48:32;;;;;;;14.75;10.15;;;;;;;10.51;81.20;100530.59;5107069;28;20522;-29
2022/05/05 03:50:57;;;;;;;13.73;10.52;;;;;;;10.58;80.50;100520.72;5106583;28;20020;-28
2022/05/05 03:53:23;;;;;;;19.15;11.38;;;;;;;10.46;82.18;100528.53;5106960;28;20024;-27
2022/05/05 03:55:48;;;;;;;16.25;11.43;;;;;;;10.68;80.78;100521.13;5088464;28;20499;-29
2022/05/05 03:58:14;;;;;;;20.38;13.45;;;;;;;10.83;80.36;100539.59;5107141;28;20031;-29
2022/05/05 04:00:39;;;;;;;17.50;12.25;;;;;;;10.93;79.64;100545.31;5109252;28;20054;-28
2022/05/05 04:05:48;;;;;;;15.68;11.57;;;;;;;10.81;79.92;100534.44;5110629;28;20027;-30
2022/05/05 04:08:15;;;;;;;14.25;11.63;;;;;;;10.78;79.98;100532.19;5110376;28;20039;-29
2022/05/05 04:10:40;;;;;;;16.27;12.00;;;;;;;10.88;80.58;100546.94;5110993;28;20028;-30
2022/05/05 04:13:06;;;;;;;18.05;11.63;;;;;;;10.91;81.58;100542.03;5110411;28;20027;-30
2022/05/05 04:15:33;;;;;;;19.38;12.80;;;;;;;11.34;78.96;100545.97;5110568;28;20016;-29
2022/05/05 04:18:00;;;;;;;14.57;11.93;;;;;;;11.22;78.87;100543.16;5091922;28;20422;-32
2022/05/05 04:20:25;;;;;;;15.45;11.93;;;;;;;11.37;77.77;100556.22;5091888;28;20039;-29
2022/05/05 04:22:51;;;;;;;15.57;11.60;;;;;;;11.29;78.14;100543.13;5110125;28;20114;-32
2022/05/05 04:25:16;;;;;;;17.70;11.30;;;;;;;11.27;78.34;100541.47;5091624;28;20104;-29
2022/05/05 04:27:45;;;;;;;14.60;11.15;;;;;;;11.59;75.98;100564.78;5110148;28;20038;-28
2022/05/05 04:30:16;;;;;;;16.60;11.95;;;;;;;11.25;78.29;100548.88;5091729;28;20112;-28
2022/05/05 04:32:43;;;;;;;15.20;11.40;;;;;;;11.51;76.80;100563.16;5090964;28;20027;-31
2022/05/05 04:35:10;;;;;;;16.20;11.27;;;;;;;11.73;76.12;100549.47;5090882;28;20023;-28
2022/05/05 04:37:35;;;;;;;17.33;11.75;;;;;;;11.94;75.29;100572.41;5109179;28;20046;-29
2022/05/05 04:40:01;;;;;;;14.52;10.52;;;;;;;11.98;75.12;100563.75;5109948;28;20123;-29
2022/05/05 04:42:26;;;;;;;13.15;10.02;;;;;;;12.02;74.36;100556.94;5109966;28;20055;-30
2022/05/05 04:44:52;;;;;;;15.45;11.68;;;;;;;12.02;75.42;100564.94;5109501;28;20022;-30
2022/05/05 04:47:18;;;;;;;14.73;10.73;;;;;;;12.13;75.50;100571.44;5109474;28;20031;-30
2022/05/05 04:49:43;;;;;;;12.60;10.07;;;;;;;12.24;74.53;100552.03;5109409;28;20063;-29
2022/05/05 04:52:08;;;;;;;16.83;10.18;;;;;;;12.51;73.02;100569.75;5109336;28;20494;-29
2022/05/05 04:54:34;;;;;;;13.63;10.63;;;;;;;12.11;76.20;100568.16;5109649;28;20018;-28
2022/05/05 04:57:00;;;;;;;14.32;10.82;;;;;;;12.32;75.33;100558.97;5090984;28;20032;-28
2022/05/05 04:59:26;;;;;;;17.42;10.93;;;;;;;12.75;72.38;100576.06;5109392;28;20027;-32
2022/05/05 05:01:51;;;;;;;17.98;12.52;;;;;;;12.61;73.75;100575.41;5109441;28;20032;-30
2022/05/05 05:04:17;;;;;;;16.08;11.85;;;;;;;12.96;72.32;100580.22;5109129;28;20580;-30
2022/05/05 05:06:42;;;;;;;19.10;14.32;;;;;;;12.92;71.75;100573.66;5108717;28;20035;-29
2022/05/05 05:09:08;;;;;;;23.85;17.65;;;;;;;12.98;71.50;100588.84;5108891;28;20016;-29
2022/05/05 05:11:33;;;;;;;21.40;15.85;;;;;;;13.17;71.89;100584.31;5108882;28;20023;-28
2022/05/05 05:13:59;;;;;;;19.38;14.73;;;;;;;13.30;71.17;100583.38;5108963;28;20016;-29
2022/05/05 05:16:25;;;;;;;24.30;18.80;;;;;;;13.19;70.28;100591.06;5089898;28;20038;-30
2022/05/05 05:18:53;;;;;;;18.25;14.32;;;;;;;13.33;71.37;100591.78;5108645;28;20023;-29
2022/05/05 05:21:18;;;;;;;;;;;;;;;13.39;70.46;100595.44;5108839;28;20124;-30
2022/05/05 05:23:44;;;;;;;16.60;12.40;;;;;;;13.12;71.52;100601.06;5108854;28;20393;-29
2022/05/05 05:26:09;;;;;;;14.73;10.85;;;;;;;13.16;71.84;100586.19;5108605;28;20019;-29
2022/05/05 05:28:35;;;;;;;16.13;12.25;;;;;;;13.37;70.62;100576.88;5108464;28;20042;-29
2022/05/05 05:31:00;;;;;;;14.65;11.57;;;;;;;13.51;70.67;100579.41;5108148;28;20461;-28
2022/05/05 05:33:26;;;;;;;12.48;9.27;;;;;;;13.78;69.02;100583.38;5090021;28;20510;-30
2022/05/05 05:35:51;;;;;;;13.57;10.50;;;;;;;13.80;69.25;100580.47;5089850;28;20063;-29
2022/05/05 05:38:20;;;;;;;14.85;11.02;;;;;;;13.97;69.95;100581.44;5089821;28;20111;-34
2022/05/05 05:40:47;;;;;;;14.63;10.60;;;;;;;14.06;69.06;100574.72;5108612;28;20034;-30
2022/05/05 05:43:13;;;;;;;12.27;9.63;;;;;;;14.05;70.26;100578.44;5089703;28;20035;-32
2022/05/05 05:45:39;;;;;;;12.52;10.18;;;;;;;14.06;69.91;100579.28;5108244;28;20027;-29
2022/05/05 05:48:07;;;;;;;11.88;9.35;;;;;;;14.31;70.19;100586.31;5108186;28;20031;-29
2022/05/05 05:50:33;;;;;;;13.95;11.15;;;;;;;14.25;69.10;100569.28;5089714;28;20039;-29
2022/05/05 05:52:59;;;;;;;12.10;10.05;;;;;;;14.39;68.66;100589.47;5108280;28;20031;-29
2022/05/05 05:55:25;;;;;;;12.68;8.38;;;;;;;14.29;71.71;100572.31;5108114;28;20435;-32
2022/05/05 05:57:50;;;;;;;15.13;10.73;;;;;;;14.57;69.96;100588.59;5107978;28;20028;-28
2022/05/05 06:00:16;;;;;;;10.85;7.88;;;;;;;14.58;69.89;100592.09;5107992;28;20031;-30
2022/05/05 06:05:26;;;;;;;11.80;8.27;;;;;;;14.41;70.67;100587.38;5108081;28;20144;-28
2022/05/05 06:07:57;;;;;;;10.38;8.05;;;;;;;14.21;72.65;100584.19;5108039;28;20031;-29
2022/05/05 06:10:23;;;;;;;11.20;8.60;;;;;;;14.76;72.51;100586.63;5107930;28;20100;-32
2022/05/05 06:12:48;;;;;;;10.18;7.78;;;;;;;14.66;70.40;100583.69;5107655;28;20464;-30
2022/05/05 06:15:14;;;;;;;14.10;8.93;;;;;;;14.53;71.43;100591.97;5107440;28;20046;-29
2022/05/05 06:17:40;;;;;;;9.13;7.45;;;;;;;14.64;71.17;100596.53;5089156;28;20055;-31
2022/05/05 06:20:06;;;;;;;9.98;7.82;;;;;;;14.62;72.06;100595.94;5107513;28;20063;-32
2022/05/05 06:22:34;;;;;;;12.02;8.10;;;;;;;14.70;72.45;100584.88;5071964;28;20468;-35
2022/05/05 06:24:59;;;;;;;10.60;7.90;;;;;;;14.92;70.76;100593.16;5107523;28;20059;-28
2022/05/05 06:27:25;;;;;;;11.27;8.50;;;;;;;14.63;72.79;100593.03;5107483;28;20078;-28
2022/05/05 06:29:50;;;;;;;10.23;8.18;;;;;;;14.47;72.71;100580.28;5107343;28;20052;-31
2022/05/05 06:32:17;;;;;;;10.32;7.85;;;;;;;14.67;71.88;100593.41;5107271;28;20031;-29
2022/05/05 06:34:42;;;;;;;12.20;8.80;;;;;;;14.96;71.79;100582.78;5107416;28;20020;-30
2022/05/05 06:37:08;;;;;;;13.45;9.13;;;;;;;14.94;72.45;100596.44;5107052;28;20096;-31
2022/05/05 06:39:34;;;;;;;10.43;8.02;;;;;;;14.60;71.60;100565.84;5088925;28;20463;-29
2022/05/05 06:42:00;;;;;;;15.05;7.82;;;;;;;14.95;72.99;100586.50;5107439;28;20483;-28
2022/05/05 06:44:26;;;;;;;13.23;8.07;;;;;;;15.01;72.47;100585.56;5088648;28;20059;-28
2022/05/05 06:46:51;;;;;;;15.80;8.90;;;;;;;15.09;71.44;100571.75;5107043;28;20031;-28
2022/05/05 06:49:17;;;;;;;10.77;8.18;;;;;;;15.51;71.43;100595.75;5107096;28;20110;-30
2022/05/05 06:51:43;;;;;;;11.70;8.55;;;;;;;15.78;70.54;100606.78;5107213;28;20027;-29
2022/05/05 06:54:08;;;;;;;9.85;7.80;;;;;;;15.63;69.22;100604.59;5107132;28;20039;-31
2022/05/05 06:56:34;;;;;;;11.13;8.27;;;;;;;15.46;71.14;100590.25;5107200;28;20027;-31
2022/05/05 06:58:59;;;;;;;10.45;8.10;;;;;;;15.72;70.87;100596.13;5106573;28;20031;-30
2022/05/05 07:06:53;;;;;;;10.20;7.70;;;;;;;16.28;68.45;100605.22;5107077;28;20038;-33
2022/05/05 07:12:03;;;;;;;9.18;7.28;;;;;;;16.38;67.76;100600.00;5107227;28;20060;-29
2022/05/05 07:14:28;;;;;;;11.98;8.10;;;;;;;16.57;66.71;100616.75;5107064;28;20056;-29
2022/05/05 07:16:54;;;;;;;8.50;6.45;;;;;;;16.78;65.22;100617.88;5106763;28;20023;-34
2022/05/05 07:19:19;;;;;;;9.80;6.32;;;;;;;16.82;64.76;100616.38;5088550;28;20027;-30
2022/05/05 07:21:45;;;;;;;9.48;6.90;;;;;;;16.99;65.95;100599.34;5088654;28;20035;-29
2022/05/05 07:24:10;;;;;;;9.48;7.07;;;;;;;17.16;64.28;100600.13;5106728;28;20112;-34
2022/05/05 07:26:35;;;;;;;9.05;6.68;;;;;;;17.24;63.80;100617.75;5107100;28;20027;-30
2022/05/05 07:29:01;;;;;;;11.52;8.90;;;;;;;17.63;63.52;100594.25;5088344;28;20087;-32
2022/05/05 07:31:26;;;;;;;7.57;6.25;;;;;;;17.89;62.17;100618.00;5106942;28;20020;-30
2022/05/05 07:33:52;;;;;;;9.75;6.03;;;;;;;17.75;62.45;100606.75;5088685;28;20034;-31
2022/05/05 07:36:17;;;;;;;8.98;6.68;;;;;;;17.86;63.62;100613.94;5109884;28;20784;-30
2022/05/05 07:38:43;;;;;;;8.43;6.47;;;;;;;18.28;61.40;100599.75;5110753;28;20082;-32
2022/05/05 07:41:08;;;;;;;8.98;6.50;;;;;;;18.32;63.63;100611.66;5110530;28;20051;-31
2022/05/05 07:43:33;;;;;;;9.35;6.47;;;;;;;18.18;61.71;100622.06;5092357;28;20402;-29
2022/05/05 07:45:59;;;;;;;10.57;6.75;;;;;;;18.37;60.91;100614.41;5110711;28;20028;-29
2022/05/05 07:48:24;;;;;;;10.15;6.80;;;;;;;18.41;60.39;100626.31;5091962;28;20471;-29
2022/05/05 07:50:50;;;;;;;8.60;6.35;;;;;;;18.46;61.50;100629.06;5110858;28;20032;-33
2022/05/05 07:53:16;;;;;;;9.20;5.95;;;;;;;18.59;60.40;100624.28;5110044;28;20036;-30
2022/05/05 07:55:42;;;;;;;9.18;5.80;;;;;;;19.26;58.87;100626.38;5092256;28;20122;-30
2022/05/05 07:58:07;;;;;;;6.90;5.30;;;;;;;19.51;57.83;100627.56;5110074;28;20110;-32
2022/05/05 08:00:33;;;;;;;7.25;4.97;;;;;;;19.14;56.30;100622.25;5110503;28;20035;-29
2022/05/05 08:02:58;;;;;;;7.95;5.43;;;;;;;19.18;56.72;100599.03;5109961;28;20031;-29
2022/05/05 08:05:24;;;;;;;7.57;5.38;;;;;;;19.71;56.58;100617.94;5091731;28;20061;-33
2022/05/05 08:07:51;;;;;;;7.68;5.45;;;;;;;20.12;55.46;100601.75;5110002;28;20028;-29
2022/05/05 08:10:17;;;;;;;9.75;5.78;;;;;;;20.11;55.54;100613.69;5110398;28;20031;-30
2022/05/05 08:12:43;;;;;;;7.75;5.63;;;;;;;20.45;56.66;100613.94;5091549;28;20456;-33
2022/05/05 08:15:10;;;;;;;7.82;5.00;;;;;;;19.72;54.26;100596.03;5110012;28;20081;-31
2022/05/05 08:17:36;;;;;;;8.88;5.25;;;;;;;19.82;57.82;100595.25;5109866;28;20149;-30
2022/05/05 08:20:04;;;;;;;7.40;5.07;;;;;;;20.14;57.19;100615.84;5091313;28;20036;-29
2022/05/05 08:22:29;;;;;;;6.63;4.40;;;;;;;20.30;55.08;100605.84;5091321;28;20030;-33
2022/05/05 08:30:22;;;;;;;6.07;4.82;;;;;;;20.74;51.90;100621.53;5109660;28;20030;-29
2022/05/05 08:32:48;;;;;;;6.72;4.05;;;;;;;20.93;51.97;100621.81;5109856;28;20666;-33
2022/05/05 08:35:13;;;;;;;6.13;4.28;;;;;;;20.91;52.49;100596.88;5109393;28;20471;-29
2022/05/05 08:37:39;;;;;;;9.45;4.75;;;;;;;21.02;51.70;100623.69;5090950;28;20171;-30
2022/05/05 08:40:06;;;;;;;7.10;4.10;;;;;;;20.89;49.84;100629.66;5109679;28;20031;-30
2022/05/05 08:42:31;;;;;;;8.03;4.90;;;;;;;20.87;50.27;100607.44;5091018;28;20089;-32
2022/05/05 08:45:00;;;;;;;7.72;5.20;;;;;;;20.78;51.42;100618.03;5109664;28;20040;-29
2022/05/05 08:47:26;;;;;;;9.32;5.43;;;;;;;20.99;52.51;100623.41;5108845;28;20111;-29
2022/05/05 08:49:59;;;;;;;6.90;4.40;;;;;;;20.99;49.56;100612.56;5091084;28;20123;-30
2022/05/05 08:52:25;;;;;;;6.35;4.25;;;;;;;21.12;48.53;100638.28;5090990;28;20110;-33
2022/05/05 08:54:51;;;;;;;7.80;4.63;;;;;;;21.55;49.84;100620.53;5109567;28;20072;-34
2022/05/05 08:57:16;;;;;;;7.40;5.20;;;;;;;21.85;49.71;100618.75;5108596;28;20019;-30
2022/05/05 08:59:42;;;;;;;6.38;4.60;;;;;;;21.92;50.09;100618.44;5090790;28;20031;-29
2022/05/05 09:02:09;;;;;;;6.90;4.03;;;;;;;21.98;49.98;100617.31;5090297;28;20039;-30
2022/05/05 09:04:34;;;;;;;5.45;3.60;;;;;;;21.73;46.73;100612.84;5090969;28;20028;-29
2022/05/05 09:07:00;;;;;;;5.15;3.88;;;;;;;21.69;47.04;100633.50;5108965;28;20038;-32
2022/05/05 09:09:27;;;;;;;6.72;3.78;;;;;;;22.11;47.94;100626.72;5090696;28;20502;-30
2022/05/05 09:12:18;;;;;;;4.85;3.25;;;;;;;21.98;46.93;100618.13;5090621;28;20027;-29
2022/05/05 09:14:50;;;;;;;7.38;4.28;;;;;;;21.86;48.15;100609.50;5108790;28;20020;-28
2022/05/05 09:17:18;;;;;;;5.05;3.50;;;;;;;22.21;48.75;100599.47;5108674;28;20740;-29
2022/05/05 09:19:46;;;;;;;5.05;3.67;;;;;;;22.57;47.66;100619.06;5108814;28;20035;-30
2022/05/05 09:22:12;;;;;;;;;;;;;;;22.62;46.51;100615.50;5091121;28;20060;-29
2022/05/05 09:27:17;;;;;;;6.15;3.63;;;;;;;22.06;45.52;100624.84;5108065;28;20613;-30
2022/05/05 09:30:01;;;;;;;6.68;4.00;;;;;;;21.80;45.13;100618.78;5090313;28;20579;-35
2022/05/05 09:32:38;;;;;;;5.63;3.50;;;;;;;22.37;45.81;100620.06;5090202;28;20502;-32
2022/05/05 09:35:16;;;;;;;5.60;3.30;;;;;;;23.15;45.13;100612.81;5089996;28;20063;-32
2022/05/05 09:37:54;;;;;;;5.53;3.35;;;;;;;23.00;46.22;100611.00;5089581;28;20036;-29
2022/05/05 09:40:21;;;;;;;4.75;3.05;;;;;;;23.09;44.51;100605.81;5089947;28;20027;-30
2022/05/05 09:42:50;;;;;;;5.68;3.60;;;;;;;23.19;45.41;100591.25;5089924;28;20039;-33
2022/05/05 09:45:29;;;;;;;5.07;3.20;;;;;;;23.24;42.42;100600.16;5108207;28;20024;-29
2022/05/05 09:48:01;;;;;;;5.40;3.33;;;;;;;23.51;41.84;100587.84;5108019;28;20063;-37
2022/05/05 09:50:31;;;;;;;3.92;2.90;;;;;;;23.56;39.48;100587.78;5090141;28;20027;-29
2022/05/05 09:58:45;;;;;;;5.38;2.80;;;;;;;24.58;37.04;100599.06;5107315;28;20123;-30
2022/05/05 10:01:21;;;;;;;4.17;2.53;;;;;;;24.71;35.49;100608.38;5089456;28;20236;-29
2022/05/05 10:04:00;;;;;;;4.70;2.40;;;;;;;24.72;33.80;100607.25;5089572;28;20096;-34
2022/05/05 10:06:47;;;;;;;5.75;2.70;;;;;;;24.79;32.84;100610.41;5107884;28;20421;-30
2022/05/05 10:09:14;;;;;;;;;;;;;;;24.95;35.02;100601.94;5089671;28;20039;-30
2022/05/05 10:11:40;;;;;;;3.40;2.65;;;;;;;25.14;36.76;100608.09;5107998;28;20398;-31
2022/05/05 10:14:10;;;;;;;4.85;2.65;;;;;;;24.63;34.34;100595.44;5089406;28;20050;-31
2022/05/05 10:16:40;;;;;;;9.35;3.38;;;;;;;24.43;35.89;100597.38;5089105;28;20046;-30
2022/05/05 10:19:07;;;;;;;8.15;3.75;;;;;;;24.51;37.75;100604.09;5107228;28;20410;-29
2022/05/05 10:21:58;;;;;;;7.78;4.05;;;;;;;24.14;37.60;100610.41;5107585;28;20031;-29
2022/05/05 10:24:28;;;;;;;10.88;5.60;;;;;;;24.06;36.86;100592.81;5089269;28;20053;-31
2022/05/05 10:26:56;;;;;;;4.70;2.83;;;;;;;24.00;36.50;100583.91;5088839;28;20046;-36
2022/05/05 10:29:30;;;;;;;6.25;3.00;;;;;;;23.30;37.67;100602.84;5089277;28;20023;-33
2022/05/05 10:32:11;;;;;;;6.53;2.53;;;;;;;23.94;35.95;100584.28;5107697;28;20024;-29
2022/05/05 10:34:45;;;;;;;5.82;2.65;;;;;;;24.44;35.74;100596.28;5089172;28;20019;-36
2022/05/05 10:37:31;;;;;;;4.30;2.58;;;;;;;24.92;33.98;100586.97;5088964;28;20080;-32
2022/05/05 10:39:59;;;;;;;7.90;4.55;;;;;;;25.40;34.87;100604.91;5107249;28;20046;-32
2022/05/05 10:42:32;;;;;;;14.75;3.83;;;;;;;25.70;32.78;100605.34;5107632;28;20035;-32
2022/05/05 10:45:31;;;;;;;6.18;2.90;;;;;;;26.04;32.70;100611.13;5106955;28;20368;-31
2022/05/05 10:48:06;;;;;;;6.82;3.03;;;;;;;25.88;31.54;100600.84;5088986;28;20039;-29
2022/05/05 10:50:50;;;;;;;4.78;2.30;;;;;;;26.43;30.92;100615.09;5088694;28;20532;-32
2022/05/05 10:53:30;;;;;;;5.20;3.17;;;;;;;27.05;29.97;100617.06;5107034;28;20063;-32
2022/05/05 10:55:57;;;;;;;7.80;5.05;;;;;;;26.86;31.61;100605.53;5088672;28;20027;-30
2022/05/05 10:59:03;;;;;;;3.90;2.60;;;;;;;26.14;33.79;100625.69;5107061;28;20062;-29
2022/05/05 11:01:44;;;;;;;11.47;3.20;;;;;;;24.76;36.24;100618.38;5107304;28;20032;-30
2022/05/05 11:04:15;;;;;;;5.53;2.90;;;;;;;24.91;37.65;100614.56;5107312;28;20264;-32
2022/05/05 11:06:42;;;;;;;6.88;2.70;;;;;;;25.22;37.01;100625.72;5107079;28;20031;-31
2022/05/05 11:09:08;;;;;;;11.25;2.72;;;;;;;24.15;37.06;100604.66;5107862;28;20031;-29
2022/05/05 11:11:41;;;;;;;8.77;2.60;;;;;;;24.31;38.43;100599.75;5110841;28;20035;-30
2022/05/05 11:22:44;;;;;;;20.70;3.78;;;;;;;24.29;36.06;100585.63;5111156;28;20031;-34
2022/05/05 11:25:10;;;;;;;8.23;3.08;;;;;;;24.49;37.87;100583.66;5092256;28;20031;-35
2022/05/05 11:27:36;;;;;;;12.75;8.27;;;;;;;24.72;35.38;100601.81;5110879;28;20039;-31
2022/05/05 11:30:02;;;;;;;7.10;4.70;;;;;;;25.09;36.39;100586.38;5110602;28;20035;-35
2022/05/05 11:32:30;;;;;;;7.45;2.53;;;;;;;25.58;36.43;100606.69;5092595;28;20097;-30
2022/05/05 11:34:56;;;;;;;3.75;1.95;;;;;;;25.13;33.79;100586.56;5110820;28;20035;-33
2022/05/05 11:37:26;;;;;;;3.83;2.30;;;;;;;25.44;34.08;100608.63;5092112;28;20063;-32
2022/05/05 11:39:52;;;;;;;3.80;1.98;;;;;;;25.42;34.60;100613.59;5092149;28;20138;-32
2022/05/05 11:42:18;;;;;;;4.32;2.70;;;;;;;25.73;33.74;100602.00;5110510;28;20106;-34
2022/05/05 11:44:45;;;;;;;5.28;2.28;;;;;;;25.76;34.21;100609.56;5092048;28;20024;-31
2022/05/05 11:47:12;;;;;;;2.13;1.60;;;;;;;25.78;34.99;100610.06;5091923;28;20042;-30
2022/05/05 11:49:39;;;;;;;9.45;4.60;;;;;;;25.54;34.25;100616.59;5110750;28;20378;-30
2022/05/05 11:52:04;;;;;;;9.47;2.57;;;;;;;25.34;32.34;100595.19;5091842;28;20030;-30
2022/05/05 11:54:32;;;;;;;2.65;1.70;;;;;;;25.66;32.48;100610.59;5092036;28;20036;-29
2022/05/05 11:56:59;;;;;;;4.25;1.70;;;;;;;26.24;32.90;100611.75;5109688;28;20035;-32
2022/05/05 12:02:17;;;;;;;2.55;1.73;;;;;;;26.62;30.16;100611.38;5110224;28;20038;-30
2022/05/05 12:04:43;;;;;;;5.63;1.83;;;;;;;26.45;28.77;100612.84;5091608;28;20454;-36
2022/05/05 12:07:12;;;;;;;3.65;2.03;;;;;;;27.02;29.09;100608.66;5109695;28;20478;-30
2022/05/05 12:09:38;;;;;;;3.30;2.00;;;;;;;27.10;29.17;100607.88;5091236;28;20031;-32